createdAt,value
2022-07-26T00:01:31.861Z,9.40
2022-07-26T00:04:03.076Z,9.70
2022-07-26T00:06:33.960Z,9.60
2022-07-26T00:09:02.495Z,10.40
2022-07-26T00:11:35.529Z,9.80
2022-07-26T00:14:07.978Z,11.60
2022-07-26T00:16:37.870Z,10.40
2022-07-26T00:19:11.282Z,13.90
2022-07-26T00:21:40.967Z,11.40
2022-07-26T00:24:11.963Z,9.80
2022-07-26T00:26:41.774Z,11.00
2022-07-26T00:29:11.952Z,10.60
2022-07-26T00:31:42.073Z,9.80
2022-07-26T00:34:11.515Z,12.50
2022-07-26T00:36:41.913Z,11.50
2022-07-26T00:39:12.255Z,8.50
2022-07-26T00:41:40.313Z,12.00
2022-07-26T00:44:10.454Z,9.90
2022-07-26T00:46:43.748Z,9.40
2022-07-26T00:51:42.388Z,8.70
2022-07-26T00:54:19.430Z,10.70
2022-07-26T00:56:52.095Z,10.90
2022-07-26T00:59:27.860Z,12.10
2022-07-26T01:01:58.523Z,9.60
2022-07-26T01:04:28.075Z,12.40
2022-07-26T01:07:01.281Z,9.10
2022-07-26T01:09:32.322Z,7.90
2022-07-26T01:12:01.248Z,11.10
2022-07-26T01:14:29.437Z,10.40
2022-07-26T01:16:57.173Z,11.00
2022-07-26T01:19:27.811Z,11.10
2022-07-26T01:21:58.310Z,8.80
2022-07-26T01:24:29.052Z,7.90
2022-07-26T01:26:59.887Z,11.70
2022-07-26T01:29:36.202Z,10.70
2022-07-26T01:32:07.725Z,12.30
2022-07-26T01:34:38.323Z,15.90
2022-07-26T01:37:06.172Z,13.20
2022-07-26T01:39:34.207Z,13.70
2022-07-26T01:42:03.560Z,13.20
2022-07-26T01:44:31.530Z,13.20
2022-07-26T01:46:59.424Z,15.60
2022-07-26T01:49:27.775Z,17.10
2022-07-26T01:51:55.742Z,15.80
2022-07-26T01:54:24.625Z,15.40
2022-07-26T01:56:52.740Z,13.20
2022-07-26T01:59:20.448Z,11.80
2022-07-26T02:01:48.307Z,15.00
2022-07-26T02:04:36.489Z,12.40
2022-07-26T02:07:05.531Z,12.30
2022-07-26T02:09:39.541Z,11.30
2022-07-26T02:12:08.667Z,10.90
2022-07-26T02:14:36.439Z,11.80
2022-07-26T02:17:04.655Z,13.10
2022-07-26T02:19:32.921Z,12.10
2022-07-26T02:22:00.790Z,11.60
2022-07-26T02:24:29.631Z,10.80
2022-07-26T02:26:59.533Z,9.90
2022-07-26T02:29:28.608Z,14.70
2022-07-26T02:31:57.525Z,11.50
2022-07-26T02:34:25.613Z,14.80
2022-07-26T02:36:53.512Z,13.10
2022-07-26T02:39:22.533Z,10.80
2022-07-26T02:41:50.440Z,13.40
2022-07-26T02:44:18.188Z,16.40
2022-07-26T02:46:46.009Z,14.60
2022-07-26T02:49:13.987Z,12.30
2022-07-26T02:51:42.044Z,13.40
2022-07-26T02:54:10.308Z,12.50
2022-07-26T02:56:38.932Z,15.00
2022-07-26T02:59:08.737Z,11.80
2022-07-26T03:01:39.265Z,13.10
2022-07-26T03:04:10.307Z,10.80
2022-07-26T03:06:38.608Z,10.90
2022-07-26T03:09:06.419Z,12.80
2022-07-26T03:11:34.870Z,13.10
2022-07-26T03:14:03.297Z,13.60
2022-07-26T03:16:32.346Z,12.00
2022-07-26T03:19:01.617Z,12.20
2022-07-26T03:21:29.953Z,12.20
2022-07-26T03:23:57.788Z,15.50
2022-07-26T03:26:25.655Z,12.80
2022-07-26T03:28:54.029Z,12.40
2022-07-26T03:31:23.684Z,12.20
2022-07-26T03:33:51.582Z,11.50
2022-07-26T03:36:20.601Z,11.20
2022-07-26T03:38:48.463Z,10.90
2022-07-26T03:41:16.431Z,12.30
2022-07-26T03:43:44.299Z,10.60
2022-07-26T03:46:12.374Z,11.10
2022-07-26T03:48:40.518Z,13.40
2022-07-26T03:51:08.409Z,16.70
2022-07-26T03:53:36.204Z,16.40
2022-07-26T03:56:22.743Z,14.10
2022-07-26T03:58:50.595Z,16.80
2022-07-26T04:01:18.352Z,16.60
2022-07-26T04:03:47.884Z,21.40
2022-07-26T04:06:16.490Z,18.20
2022-07-26T04:08:44.649Z,18.60
2022-07-26T04:11:12.741Z,21.20
2022-07-26T04:13:40.497Z,19.00
2022-07-26T04:16:08.884Z,16.60
2022-07-26T04:18:36.685Z,15.60
2022-07-26T04:21:04.872Z,21.10
2022-07-26T04:23:32.600Z,20.10
2022-07-26T04:26:01.431Z,17.10
2022-07-26T04:28:29.339Z,17.80
2022-07-26T04:30:58.435Z,18.00
2022-07-26T04:33:26.308Z,15.70
2022-07-26T04:35:54.498Z,12.60
2022-07-26T04:38:23.160Z,14.30
2022-07-26T04:40:51.426Z,12.90
2022-07-26T04:43:19.837Z,15.00
2022-07-26T04:45:48.951Z,11.20
2022-07-26T04:48:17.110Z,12.10
2022-07-26T04:50:45.662Z,9.90
2022-07-26T04:53:13.662Z,11.90
2022-07-26T04:55:42.183Z,12.40
2022-07-26T04:58:10.656Z,10.30
2022-07-26T05:01:02.683Z,9.60
2022-07-26T05:03:26.243Z,10.70
2022-07-26T05:05:54.263Z,10.00
2022-07-26T05:08:22.025Z,12.70
2022-07-26T05:10:55.229Z,9.50
2022-07-26T05:13:30.589Z,11.90
2022-07-26T05:15:59.857Z,10.20
2022-07-26T05:18:31.597Z,14.30
2022-07-26T05:21:11.697Z,12.20
2022-07-26T05:23:41.710Z,12.80
2022-07-26T05:26:12.095Z,12.60
2022-07-26T05:28:40.181Z,11.60
2022-07-26T05:31:08.200Z,11.90
2022-07-26T05:33:36.221Z,11.00
2022-07-26T05:36:04.935Z,11.20
2022-07-26T05:38:33.801Z,12.10
2022-07-26T05:41:01.569Z,14.70
2022-07-26T05:43:40.604Z,10.00
2022-07-26T05:46:11.266Z,10.10
2022-07-26T05:48:40.161Z,10.90
2022-07-26T05:51:09.170Z,11.90
2022-07-26T05:53:37.787Z,10.60
2022-07-26T05:56:06.722Z,13.00
2022-07-26T05:58:34.641Z,10.30
2022-07-26T06:01:02.380Z,11.30
2022-07-26T06:03:32.367Z,12.40
2022-07-26T06:06:00.326Z,9.20
2022-07-26T06:08:28.260Z,9.90
2022-07-26T06:10:56.337Z,7.70
2022-07-26T06:13:24.709Z,9.10
2022-07-26T06:15:52.758Z,10.90
2022-07-26T06:18:20.749Z,9.60
2022-07-26T06:20:49.376Z,7.50
2022-07-26T06:23:17.227Z,8.50
2022-07-26T06:25:44.924Z,9.60
2022-07-26T06:28:13.215Z,11.40
2022-07-26T06:30:43.970Z,10.70
2022-07-26T06:33:12.149Z,14.20
2022-07-26T06:35:40.214Z,10.00
2022-07-26T06:38:08.828Z,12.00
2022-07-26T06:40:36.768Z,9.50
2022-07-26T06:43:05.089Z,11.90
2022-07-26T06:45:34.170Z,8.20
2022-07-26T06:48:02.131Z,7.40
2022-07-26T06:50:29.985Z,9.20
2022-07-26T06:52:57.736Z,10.30
2022-07-26T06:55:25.604Z,12.30
2022-07-26T06:57:55.543Z,8.10
2022-07-26T07:00:23.332Z,9.40
2022-07-26T07:02:51.354Z,8.10
2022-07-26T07:05:19.369Z,9.90
2022-07-26T07:07:47.291Z,9.20
2022-07-26T07:10:15.976Z,16.90
2022-07-26T07:12:45.070Z,14.20
2022-07-26T07:15:13.040Z,9.80
2022-07-26T07:17:41.057Z,10.00
2022-07-26T07:20:09.548Z,14.20
2022-07-26T07:22:37.602Z,13.10
2022-07-26T07:25:06.348Z,7.80
2022-07-26T07:27:34.653Z,6.80
2022-07-26T07:30:04.841Z,17.30
2022-07-26T07:32:33.279Z,10.90
2022-07-26T07:35:03.544Z,10.70
2022-07-26T07:37:52.368Z,8.50
2022-07-26T07:40:23.340Z,10.20
2022-07-26T07:42:51.440Z,10.70
2022-07-26T07:45:19.256Z,11.50
2022-07-26T07:47:47.278Z,10.30
2022-07-26T07:50:14.978Z,7.70
2022-07-26T07:52:42.729Z,8.10
2022-07-26T07:57:58.718Z,12.00
2022-07-26T08:00:33.080Z,10.90
2022-07-26T08:03:03.291Z,10.00
2022-07-26T08:05:31.397Z,13.00
2022-07-26T08:07:59.871Z,8.40
2022-07-26T08:10:29.771Z,11.20
2022-07-26T08:12:57.755Z,10.60
2022-07-26T08:15:27.976Z,7.30
2022-07-26T08:17:59.018Z,12.90
2022-07-26T08:20:28.213Z,15.40
2022-07-26T08:22:56.492Z,14.20
2022-07-26T08:25:24.196Z,6.30
2022-07-26T08:28:15.465Z,8.70
2022-07-26T08:30:41.595Z,11.60
2022-07-26T08:33:09.767Z,7.20
2022-07-26T08:35:37.660Z,5.30
2022-07-26T08:38:05.401Z,11.40
2022-07-26T08:40:34.383Z,13.60
2022-07-26T08:43:03.174Z,10.40
2022-07-26T08:45:32.356Z,8.50
2022-07-26T08:48:19.425Z,11.40
2022-07-26T08:50:48.763Z,5.80
2022-07-26T08:53:17.173Z,6.00
2022-07-26T08:56:05.908Z,12.00
2022-07-26T08:58:37.555Z,4.80
2022-07-26T09:01:15.259Z,8.80
2022-07-26T09:03:45.848Z,8.30
2022-07-26T09:06:20.210Z,8.30
2022-07-26T09:08:52.701Z,9.00
2022-07-26T09:11:23.371Z,7.70
2022-07-26T09:16:21.097Z,8.40
2022-07-26T09:18:49.621Z,6.20
2022-07-26T09:21:47.088Z,9.20
2022-07-26T09:24:50.450Z,7.70
2022-07-26T09:27:18.967Z,9.30
2022-07-26T09:29:49.539Z,7.80
2022-07-26T09:35:24.146Z,8.90
2022-07-26T09:37:58.062Z,8.20
2022-07-26T09:40:34.731Z,12.70
2022-07-26T09:43:05.487Z,12.30
2022-07-26T09:48:03.865Z,7.70
2022-07-26T09:50:33.546Z,10.90
2022-07-26T09:53:04.902Z,12.40
2022-07-26T09:55:44.164Z,8.80
2022-07-26T09:58:14.817Z,13.10
2022-07-26T10:00:44.249Z,10.00
2022-07-26T10:03:12.338Z,11.90
2022-07-26T10:05:41.053Z,11.70
2022-07-26T10:08:09.971Z,11.00
2022-07-26T10:10:48.397Z,11.30
2022-07-26T10:13:17.934Z,10.40
2022-07-26T10:15:51.564Z,9.60
2022-07-26T10:18:39.188Z,15.20
2022-07-26T10:21:32.324Z,13.10
2022-07-26T10:24:03.028Z,13.60
2022-07-26T10:26:33.938Z,13.60
2022-07-26T10:29:18.930Z,12.30
2022-07-26T10:31:49.615Z,13.00
2022-07-26T10:34:37.061Z,11.90
2022-07-26T10:37:08.976Z,19.30
2022-07-26T10:39:39.067Z,18.60
2022-07-26T10:42:13.282Z,13.60
2022-07-26T10:44:45.026Z,16.00
2022-07-26T10:47:18.570Z,14.20
2022-07-26T10:50:01.253Z,13.90
2022-07-26T10:52:32.207Z,12.80
2022-07-26T10:55:00.977Z,15.80
2022-07-26T10:57:44.738Z,16.20
2022-07-26T11:00:13.877Z,18.80
2022-07-26T11:02:44.448Z,16.80
2022-07-26T11:05:19.680Z,20.20
2022-07-26T11:08:09.224Z,19.30
2022-07-26T11:10:42.197Z,16.00
2022-07-26T11:13:16.067Z,20.80
2022-07-26T11:15:49.194Z,17.90
2022-07-26T11:18:29.518Z,20.60
2022-07-26T11:21:13.487Z,20.90
2022-07-26T11:23:44.964Z,19.20
2022-07-26T11:26:21.559Z,32.40
2022-07-26T11:28:59.675Z,19.50
2022-07-26T11:31:55.411Z,22.40
2022-07-26T11:34:34.190Z,21.10
2022-07-26T11:37:05.346Z,18.70
2022-07-26T11:39:35.579Z,21.40
2022-07-26T11:42:09.091Z,18.60
2022-07-26T11:44:38.035Z,21.30
2022-07-26T11:47:24.197Z,15.90
2022-07-26T11:52:43.641Z,20.20
2022-07-26T11:55:12.736Z,20.40
2022-07-26T11:57:42.627Z,17.80
2022-07-26T12:00:16.872Z,22.50
2022-07-26T12:02:46.785Z,17.00
2022-07-26T12:05:23.805Z,24.30
2022-07-26T12:08:08.196Z,19.10
2022-07-26T12:10:37.413Z,17.90
2022-07-26T12:13:16.075Z,22.60
2022-07-26T12:15:52.967Z,21.10
2022-07-26T12:18:31.649Z,17.40
2022-07-26T12:21:05.177Z,22.90
2022-07-26T12:23:48.689Z,20.10
2022-07-26T12:26:30.949Z,24.90
2022-07-26T12:29:20.125Z,17.50
2022-07-26T12:32:02.975Z,27.40
2022-07-26T12:37:07.737Z,22.50
2022-07-26T12:39:35.776Z,24.20
2022-07-26T12:42:33.424Z,22.70
2022-07-26T12:45:07.727Z,26.40
2022-07-26T12:47:38.095Z,23.70
2022-07-26T12:50:08.617Z,24.20
2022-07-26T12:52:38.630Z,25.20
2022-07-26T12:55:10.327Z,26.30
2022-07-26T12:57:38.157Z,25.90
2022-07-26T13:00:12.753Z,20.30
2022-07-26T13:02:45.749Z,20.30
2022-07-26T13:05:15.226Z,24.20
2022-07-26T13:07:44.151Z,26.00
2022-07-26T13:10:32.353Z,20.00
2022-07-26T13:13:04.385Z,21.70
2022-07-26T13:15:36.138Z,21.00
2022-07-26T13:18:08.505Z,19.10
2022-07-26T13:20:38.995Z,20.40
2022-07-26T13:23:12.700Z,20.90
2022-07-26T13:25:44.122Z,22.10
2022-07-26T13:28:12.909Z,21.40
2022-07-26T13:30:43.348Z,24.30
2022-07-26T13:33:14.314Z,22.20
2022-07-26T13:35:44.243Z,22.60
2022-07-26T13:38:12.178Z,24.30
2022-07-26T13:40:40.987Z,20.40
2022-07-26T13:43:10.101Z,19.70
2022-07-26T13:45:37.936Z,23.70
2022-07-26T13:48:08.473Z,19.40
2022-07-26T13:50:37.363Z,24.00
2022-07-26T13:53:05.164Z,22.20
2022-07-26T13:55:33.739Z,22.60
2022-07-26T13:58:09.208Z,20.40
2022-07-26T14:00:41.855Z,20.90
2022-07-26T14:03:10.726Z,19.80
2022-07-26T14:05:38.540Z,24.20
2022-07-26T14:08:08.431Z,24.30
2022-07-26T14:10:40.067Z,21.30
2022-07-26T14:13:09.581Z,23.80
2022-07-26T14:15:40.503Z,22.20
2022-07-26T14:18:10.239Z,27.90
2022-07-26T14:20:39.076Z,20.20
2022-07-26T14:23:06.830Z,24.20
2022-07-26T14:25:37.306Z,22.60
2022-07-26T14:28:06.364Z,25.00
2022-07-26T14:30:35.852Z,23.50
2022-07-26T14:33:05.974Z,23.70
2022-07-26T14:35:33.982Z,21.50
2022-07-26T14:38:01.693Z,22.00
2022-07-26T14:40:30.804Z,24.20
2022-07-26T14:42:59.623Z,21.30
2022-07-26T14:45:27.710Z,26.40
2022-07-26T14:47:57.325Z,24.50
2022-07-26T14:50:28.349Z,26.40
2022-07-26T14:52:56.369Z,23.70
2022-07-26T14:55:25.825Z,26.10
2022-07-26T14:57:55.014Z,24.80
2022-07-26T15:00:25.983Z,27.20
2022-07-26T15:02:54.823Z,26.80
2022-07-26T15:05:25.405Z,26.80
2022-07-26T15:07:57.277Z,27.90
2022-07-26T15:10:32.703Z,28.10
2022-07-26T15:13:05.602Z,29.60
2022-07-26T15:15:34.420Z,26.70
2022-07-26T15:18:02.406Z,27.60
2022-07-26T15:20:30.409Z,29.10
2022-07-26T15:22:58.836Z,30.40
2022-07-26T15:25:27.298Z,27.30
2022-07-26T15:27:55.259Z,31.80
2022-07-26T15:30:25.538Z,28.90
2022-07-26T15:32:58.954Z,29.60
2022-07-26T15:35:26.770Z,37.40
2022-07-26T15:37:54.574Z,27.90
2022-07-26T15:40:22.309Z,29.80
2022-07-26T15:42:53.052Z,29.90
2022-07-26T15:45:23.103Z,30.30
2022-07-26T15:47:59.323Z,30.30
2022-07-26T15:50:34.096Z,31.40
2022-07-26T15:53:03.188Z,29.60
2022-07-26T15:55:31.193Z,24.60
2022-07-26T15:58:00.329Z,29.00
2022-07-26T16:00:29.162Z,30.20
2022-07-26T16:02:56.854Z,29.10
2022-07-26T16:05:26.336Z,28.90
2022-07-26T16:07:57.015Z,30.00
2022-07-26T16:10:26.147Z,34.10
2022-07-26T16:12:56.873Z,30.60
2022-07-26T16:15:25.219Z,30.10
2022-07-26T16:17:54.234Z,28.40
2022-07-26T16:20:22.005Z,29.30
2022-07-26T16:22:51.275Z,30.10
2022-07-26T16:25:19.247Z,30.20
2022-07-26T16:27:47.878Z,30.20
2022-07-26T16:30:18.243Z,32.10
2022-07-26T16:32:49.454Z,28.50
2022-07-26T16:35:18.013Z,28.60
2022-07-26T16:37:46.059Z,27.80
2022-07-26T16:40:15.973Z,29.80
2022-07-26T16:42:43.711Z,31.30
2022-07-26T16:45:12.365Z,30.50
2022-07-26T16:47:44.888Z,28.50
2022-07-26T16:50:15.012Z,30.70
2022-07-26T16:52:58.089Z,28.70
2022-07-26T16:55:25.929Z,30.20
2022-07-26T16:57:55.487Z,29.70
2022-07-26T17:00:23.273Z,32.90
2022-07-26T17:02:51.293Z,31.40
2022-07-26T17:05:19.352Z,29.00
2022-07-26T17:07:47.588Z,30.60
2022-07-26T17:10:15.416Z,30.90
2022-07-26T17:12:43.164Z,26.70
2022-07-26T17:15:14.065Z,27.60
2022-07-26T17:17:45.659Z,28.30
2022-07-26T17:20:18.003Z,25.30
2022-07-26T17:22:46.909Z,28.10
2022-07-26T17:25:14.698Z,26.90
2022-07-26T17:27:42.483Z,26.90
2022-07-26T17:30:10.866Z,23.90
2022-07-26T17:32:38.891Z,25.90
2022-07-26T17:35:09.314Z,24.20
2022-07-26T17:37:40.167Z,20.30
2022-07-26T17:40:11.464Z,18.40
2022-07-26T17:42:42.043Z,20.90
2022-07-26T17:45:12.811Z,18.40
2022-07-26T17:47:43.367Z,20.10
2022-07-26T17:50:35.539Z,17.80
2022-07-26T17:53:01.596Z,16.80
2022-07-26T17:55:29.555Z,14.60
2022-07-26T17:58:00.788Z,16.30
2022-07-26T18:00:31.650Z,17.00
2022-07-26T18:02:59.617Z,17.60
2022-07-26T18:05:34.228Z,16.30
2022-07-26T18:08:07.774Z,19.40
2022-07-26T18:10:38.377Z,16.60
2022-07-26T18:13:08.546Z,18.70
2022-07-26T18:15:36.652Z,16.50
2022-07-26T18:18:10.563Z,17.60
2022-07-26T18:20:40.179Z,16.80
2022-07-26T18:23:10.480Z,13.70
2022-07-26T18:25:38.710Z,18.90
2022-07-26T18:28:10.298Z,15.40
2022-07-26T18:30:40.690Z,14.30
2022-07-26T18:33:14.667Z,15.40
2022-07-26T18:35:45.399Z,17.40
2022-07-26T18:38:15.093Z,14.00
2022-07-26T18:40:44.811Z,15.20
2022-07-26T18:43:14.056Z,14.10
2022-07-26T18:45:42.395Z,14.60
2022-07-26T18:48:12.953Z,14.80
2022-07-26T18:50:42.311Z,14.30
2022-07-26T18:53:11.129Z,13.60
2022-07-26T18:55:40.722Z,13.70
2022-07-26T18:58:08.840Z,14.80
2022-07-26T19:00:36.972Z,14.90
2022-07-26T19:03:06.626Z,16.40
2022-07-26T19:05:37.337Z,13.80
2022-07-26T19:08:05.477Z,14.30
2022-07-26T19:10:34.069Z,13.70
2022-07-26T19:13:02.185Z,15.20
2022-07-26T19:15:32.198Z,15.20
2022-07-26T19:18:09.319Z,21.10
2022-07-26T19:20:37.080Z,18.40
2022-07-26T19:23:07.189Z,17.20
2022-07-26T19:25:35.188Z,15.20
2022-07-26T19:28:09.349Z,19.20
2022-07-26T19:30:39.535Z,18.80
2022-07-26T19:33:07.918Z,17.50
2022-07-26T19:35:36.171Z,17.20
2022-07-26T19:38:06.999Z,16.00
2022-07-26T19:40:36.409Z,20.10
2022-07-26T19:43:06.647Z,16.00
2022-07-26T19:45:34.414Z,18.00
2022-07-26T19:48:02.267Z,17.60
2022-07-26T19:50:31.252Z,18.10
2022-07-26T19:52:59.353Z,19.40
2022-07-26T19:55:27.445Z,19.10
2022-07-26T19:57:58.560Z,21.00
2022-07-26T20:00:31.002Z,17.70
2022-07-26T20:02:58.931Z,15.80
2022-07-26T20:05:29.913Z,16.50
2022-07-26T20:07:58.671Z,17.20
2022-07-26T20:10:32.246Z,16.20
2022-07-26T20:13:00.734Z,18.80
2022-07-26T20:15:31.043Z,16.30
2022-07-26T20:17:59.197Z,20.70
2022-07-26T20:20:30.287Z,18.40
2022-07-26T20:22:58.191Z,18.10
2022-07-26T20:25:28.375Z,24.20
2022-07-26T20:27:58.055Z,17.80
2022-07-26T20:30:28.179Z,17.80
2022-07-26T20:32:56.033Z,19.30
2022-07-26T20:35:26.097Z,16.10
2022-07-26T20:37:54.060Z,18.90
2022-07-26T20:40:22.058Z,16.70
2022-07-26T20:42:54.443Z,16.60
2022-07-26T20:45:27.252Z,18.40
2022-07-26T20:47:56.222Z,17.60
2022-07-26T20:50:24.285Z,20.50
2022-07-26T20:52:52.110Z,18.00
2022-07-26T20:55:26.983Z,19.00
2022-07-26T20:57:57.071Z,17.70
2022-07-26T21:00:29.472Z,20.30
2022-07-26T21:03:00.588Z,20.00
2022-07-26T21:05:32.334Z,21.80
2022-07-26T21:10:32.727Z,21.10
2022-07-26T21:13:01.386Z,17.20
2022-07-26T21:15:32.772Z,17.40
2022-07-26T21:18:01.492Z,21.90
2022-07-26T21:20:29.293Z,20.00
2022-07-26T21:23:08.068Z,17.90
2022-07-26T21:25:44.242Z,19.30
2022-07-26T21:28:12.016Z,20.80
2022-07-26T21:30:40.665Z,20.00
2022-07-26T21:33:08.599Z,22.40
2022-07-26T21:35:37.018Z,21.20
2022-07-26T21:38:04.837Z,19.30
2022-07-26T21:40:32.562Z,21.50
2022-07-26T21:43:01.318Z,20.40
2022-07-26T21:45:31.754Z,17.80
2022-07-26T21:48:03.173Z,20.40
2022-07-26T21:50:35.057Z,22.40
2022-07-26T21:53:02.821Z,22.20
2022-07-26T21:55:32.841Z,21.60
2022-07-26T21:58:01.229Z,18.90
2022-07-26T22:00:28.944Z,21.50
2022-07-26T22:02:58.469Z,23.80
2022-07-26T22:05:43.942Z,20.50
2022-07-26T22:08:15.068Z,21.00
2022-07-26T22:10:48.363Z,21.60
2022-07-26T22:13:16.547Z,25.20
2022-07-26T22:15:46.106Z,21.70
2022-07-26T22:18:15.065Z,24.40
2022-07-26T22:20:47.488Z,22.80
2022-07-26T22:23:17.365Z,21.80
2022-07-26T22:25:48.491Z,21.00
2022-07-26T22:28:17.927Z,22.60
2022-07-26T22:30:50.674Z,23.50
2022-07-26T22:33:18.668Z,22.70
2022-07-26T22:35:50.579Z,24.70
2022-07-26T22:38:21.515Z,25.90
2022-07-26T22:40:51.766Z,26.00
2022-07-26T22:43:19.775Z,24.70
2022-07-26T22:45:49.255Z,24.00
2022-07-26T22:48:18.084Z,24.30
2022-07-26T22:50:46.022Z,23.60
2022-07-26T22:53:14.961Z,24.80
2022-07-26T22:55:42.956Z,26.70
2022-07-26T22:58:11.714Z,31.50
2022-07-26T23:00:39.569Z,23.20
2022-07-26T23:03:20.382Z,23.60
2022-07-26T23:05:52.356Z,29.80
2022-07-26T23:08:47.077Z,30.40
2022-07-26T23:11:12.690Z,29.50
2022-07-26T23:13:44.787Z,28.10
2022-07-26T23:16:12.566Z,30.80
2022-07-26T23:18:43.810Z,28.50
2022-07-26T23:21:11.662Z,28.00
2022-07-26T23:23:39.632Z,31.00
2022-07-26T23:26:07.500Z,29.10
2022-07-26T23:28:38.268Z,28.00
2022-07-26T23:31:08.846Z,31.30
2022-07-26T23:33:51.612Z,34.50
2022-07-26T23:36:27.304Z,33.30
2022-07-26T23:38:57.076Z,32.40
2022-07-26T23:41:26.748Z,32.50
2022-07-26T23:43:55.337Z,33.80
2022-07-26T23:46:23.696Z,34.40
2022-07-26T23:48:52.610Z,35.40
2022-07-26T23:51:23.022Z,34.70
2022-07-26T23:53:51.808Z,33.10
2022-07-26T23:56:19.965Z,35.10
2022-07-26T23:58:47.952Z,42.10
